sensor_id;sensor_type;location;lat;lon;timestamp;pressure;altitude;pressure_sealevel;temperature;humidity
73551;BME280;61816;53.582;10.096;2023-07-09T00:00:59;54153.19;;;-144.73;71.97
73551;BME280;61816;53.582;10.096;2023-07-09T00:03:24;54149.09;;;-144.73;72.18
73551;BME280;61816;53.582;10.096;2023-07-09T00:05:50;54165.50;;;-144.73;71.98
73551;BME280;61816;53.582;10.096;2023-07-09T00:08:27;54177.81;;;-144.73;72.98
73551;BME280;61816;53.582;10.096;2023-07-09T00:10:54;54112.16;;;-144.73;71.86
73551;BME280;61816;53.582;10.096;2023-07-09T00:13:20;54136.78;;;-144.73;73.43
73551;BME280;61816;53.582;10.096;2023-07-09T00:15:46;54194.25;;;-144.73;72.63
73551;BME280;61816;53.582;10.096;2023-07-09T00:18:11;54179.88;;;-144.73;71.95
73551;BME280;61816;53.582;10.096;2023-07-09T00:20:37;54210.66;;;-144.73;72.74
73551;BME280;61816;53.582;10.096;2023-07-09T00:23:02;54173.72;;;-144.73;72.31
73551;BME280;61816;53.582;10.096;2023-07-09T00:25:29;54149.09;;;-144.73;72.74
73551;BME280;61816;53.582;10.096;2023-07-09T00:27:55;54165.50;;;-144.73;72.04
73551;BME280;61816;53.582;10.096;2023-07-09T00:30:22;54165.50;;;-144.73;72.75
73551;BME280;61816;53.582;10.096;2023-07-09T00:32:49;54145.00;;;-144.73;72.65
73551;BME280;61816;53.582;10.096;2023-07-09T00:35:15;54190.13;;;-144.73;72.19
73551;BME280;61816;53.582;10.096;2023-07-09T00:37:42;54169.63;;;-144.73;71.44
73551;BME280;61816;53.582;10.096;2023-07-09T00:40:16;54132.69;;;-144.73;72.08
73551;BME280;61816;53.582;10.096;2023-07-09T00:42:45;54171.66;;;-144.73;72.08
73551;BME280;61816;53.582;10.096;2023-07-09T00:45:26;54145.00;;;-144.73;70.54
73551;BME280;61816;53.582;10.096;2023-07-09T00:48:04;54181.94;;;-144.73;70.92
73551;BME280;61816;53.582;10.096;2023-07-09T00:50:38;54157.31;;;-144.73;71.35
73551;BME280;61816;53.582;10.096;2023-07-09T00:53:18;54112.16;;;-144.73;70.55
73551;BME280;61816;53.582;10.096;2023-07-09T00:55:47;54177.81;;;-144.73;71.84
73551;BME280;61816;53.582;10.096;2023-07-09T00:58:14;54145.00;;;-144.73;70.11
73551;BME280;61816;53.582;10.096;2023-07-09T01:00:52;54151.16;;;-144.73;70.97
73551;BME280;61816;53.582;10.096;2023-07-09T01:03:32;54149.09;;;-144.73;71.53
73551;BME280;61816;53.582;10.096;2023-07-09T01:06:00;54093.69;;;-144.73;72.28
73551;BME280;61816;53.582;10.096;2023-07-09T01:08:25;54136.78;;;-144.73;71.20
73551;BME280;61816;53.582;10.096;2023-07-09T01:10:57;54194.25;;;-144.73;71.51
73551;BME280;61816;53.582;10.096;2023-07-09T01:13:23;54128.56;;;-144.73;71.08
73551;BME280;61816;53.582;10.096;2023-07-09T01:15:52;54132.69;;;-144.73;69.94
73551;BME280;61816;53.582;10.096;2023-07-09T01:18:18;54116.25;;;-144.73;70.70
73551;BME280;61816;53.582;10.096;2023-07-09T01:20:43;54157.31;;;-144.73;73.75
73551;BME280;61816;53.582;10.096;2023-07-09T01:23:09;54186.03;;;-144.73;70.75
73551;BME280;61816;53.582;10.096;2023-07-09T01:25:38;54149.09;;;-144.73;71.49
73551;BME280;61816;53.582;10.096;2023-07-09T01:28:05;54165.50;;;-144.73;71.08
73551;BME280;61816;53.582;10.096;2023-07-09T01:30:35;54177.81;;;-144.73;70.95
73551;BME280;61816;53.582;10.096;2023-07-09T01:33:01;54149.09;;;-144.73;71.62
73551;BME280;61816;53.582;10.096;2023-07-09T01:35:29;54145.00;;;-144.73;70.76
73551;BME280;61816;53.582;10.096;2023-07-09T01:37:55;54145.00;;;-144.73;71.25
73551;BME280;61816;53.582;10.096;2023-07-09T01:40:22;54108.03;;;-144.73;70.02
73551;BME280;61816;53.582;10.096;2023-07-09T01:42:49;54186.03;;;-144.73;70.51
73551;BME280;61816;53.582;10.096;2023-07-09T01:45:15;54145.00;;;-144.73;69.14
73551;BME280;61816;53.582;10.096;2023-07-09T01:47:41;54157.31;;;-144.73;68.38
73551;BME280;61816;53.582;10.096;2023-07-09T01:50:08;54161.41;;;-144.73;68.94
73551;BME280;61816;53.582;10.096;2023-07-09T01:52:36;54169.63;;;-144.73;70.50
73551;BME280;61816;53.582;10.096;2023-07-09T01:55:03;54145.00;;;-144.73;69.25
73551;BME280;61816;53.582;10.096;2023-07-09T01:57:29;54165.50;;;-144.73;69.50
73551;BME280;61816;53.582;10.096;2023-07-09T02:00:07;54145.00;;;-144.73;71.06
73551;BME280;61816;53.582;10.096;2023-07-09T02:02:35;54132.69;;;-144.73;69.42
73551;BME280;61816;53.582;10.096;2023-07-09T02:05:01;54149.09;;;-144.73;69.42
73551;BME280;61816;53.582;10.096;2023-07-09T02:07:27;54159.34;;;-144.73;69.15
73551;BME280;61816;53.582;10.096;2023-07-09T02:09:52;54161.41;;;-144.73;70.18
73551;BME280;61816;53.582;10.096;2023-07-09T02:12:18;54157.31;;;-144.73;68.72
73551;BME280;61816;53.582;10.096;2023-07-09T02:14:45;54128.56;;;-144.73;69.63
73551;BME280;61816;53.582;10.096;2023-07-09T02:17:12;54165.50;;;-144.73;69.55
73551;BME280;61816;53.582;10.096;2023-07-09T02:19:37;54128.56;;;-144.73;69.46
73551;BME280;61816;53.582;10.096;2023-07-09T02:22:04;54181.94;;;-144.73;71.82
73551;BME280;61816;53.582;10.096;2023-07-09T02:24:30;54161.41;;;-144.73;70.42
73551;BME280;61816;53.582;10.096;2023-07-09T02:26:59;54145.00;;;-144.73;70.34
73551;BME280;61816;53.582;10.096;2023-07-09T02:29:25;54159.34;;;-144.73;70.55
73551;BME280;61816;53.582;10.096;2023-07-09T02:31:52;54167.56;;;-144.73;70.06
73551;BME280;61816;53.582;10.096;2023-07-09T02:34:18;54161.41;;;-144.73;69.89
73551;BME280;61816;53.582;10.096;2023-07-09T02:36:44;54155.25;;;-144.73;70.50
73551;BME280;61816;53.582;10.096;2023-07-09T02:39:10;54177.81;;;-144.73;69.65
73551;BME280;61816;53.582;10.096;2023-07-09T02:41:36;54151.16;;;-144.73;69.16
73551;BME280;61816;53.582;10.096;2023-07-09T02:44:03;54122.41;;;-144.73;70.13
73551;BME280;61816;53.582;10.096;2023-07-09T02:46:29;54171.66;;;-144.73;69.98
73551;BME280;61816;53.582;10.096;2023-07-09T02:48:54;54173.72;;;-144.73;69.75
73551;BME280;61816;53.582;10.096;2023-07-09T02:51:20;54157.31;;;-144.73;70.46
73551;BME280;61816;53.582;10.096;2023-07-09T02:53:47;54171.66;;;-144.73;69.50
73551;BME280;61816;53.582;10.096;2023-07-09T02:56:12;54145.00;;;-144.73;71.71
73551;BME280;61816;53.582;10.096;2023-07-09T02:58:38;54151.16;;;-144.73;70.39
73551;BME280;61816;53.582;10.096;2023-07-09T03:01:03;54167.56;;;-144.73;69.75
73551;BME280;61816;53.582;10.096;2023-07-09T03:03:29;54165.50;;;-144.73;70.28
73551;BME280;61816;53.582;10.096;2023-07-09T03:05:54;54157.31;;;-144.73;70.00
73551;BME280;61816;53.582;10.096;2023-07-09T03:08:20;54159.34;;;-144.73;68.76
73551;BME280;61816;53.582;10.096;2023-07-09T03:10:45;54149.09;;;-144.73;67.75
73551;BME280;61816;53.582;10.096;2023-07-09T03:13:10;54128.56;;;-144.73;68.35
73551;BME280;61816;53.582;10.096;2023-07-09T03:15:36;54120.34;;;-144.73;68.19
73551;BME280;61816;53.582;10.096;2023-07-09T03:18:01;54198.34;;;-144.73;68.27
73551;BME280;61816;53.582;10.096;2023-07-09T03:20:26;54190.13;;;-144.73;68.37
73551;BME280;61816;53.582;10.096;2023-07-09T03:22:52;54173.72;;;-144.73;68.79
73551;BME280;61816;53.582;10.096;2023-07-09T03:25:17;54128.56;;;-144.73;69.08
73551;BME280;61816;53.582;10.096;2023-07-09T03:27:43;54200.41;;;-144.73;68.85
73551;BME280;61816;53.582;10.096;2023-07-09T03:30:08;54149.09;;;-144.73;69.58
73551;BME280;61816;53.582;10.096;2023-07-09T03:32:34;54173.72;;;-144.73;69.88
73551;BME280;61816;53.582;10.096;2023-07-09T03:34:59;54167.56;;;-144.73;70.29
73551;BME280;61816;53.582;10.096;2023-07-09T03:37:24;54128.56;;;-144.73;70.59
73551;BME280;61816;53.582;10.096;2023-07-09T03:39:50;54161.41;;;-144.73;69.82
73551;BME280;61816;53.582;10.096;2023-07-09T03:42:15;54186.03;;;-144.73;69.49
73551;BME280;61816;53.582;10.096;2023-07-09T03:44:41;54147.03;;;-144.73;69.06
73551;BME280;61816;53.582;10.096;2023-07-09T03:47:07;54190.13;;;-144.73;68.00
73551;BME280;61816;53.582;10.096;2023-07-09T03:49:32;54149.09;;;-144.73;67.81
73551;BME280;61816;53.582;10.096;2023-07-09T03:51:58;54136.78;;;-144.73;68.92
73551;BME280;61816;53.582;10.096;2023-07-09T03:54:23;54194.25;;;-144.73;69.15
73551;BME280;61816;53.582;10.096;2023-07-09T03:56:49;54169.63;;;-144.73;68.82
73551;BME280;61816;53.582;10.096;2023-07-09T03:59:14;54202.44;;;-144.73;69.32
73551;BME280;61816;53.582;10.096;2023-07-09T04:01:39;54149.09;;;-144.73;68.84
73551;BME280;61816;53.582;10.096;2023-07-09T04:04:12;54186.03;;;-144.73;68.76
73551;BME280;61816;53.582;10.096;2023-07-09T04:06:37;54159.34;;;-144.73;69.41
73551;BME280;61816;53.582;10.096;2023-07-09T04:09:03;54202.44;;;-144.73;68.11
73551;BME280;61816;53.582;10.096;2023-07-09T04:11:28;54161.41;;;-144.73;68.85
73551;BME280;61816;53.582;10.096;2023-07-09T04:13:53;54210.66;;;-144.73;67.77
73551;BME280;61816;53.582;10.096;2023-07-09T04:16:19;54210.66;;;-144.73;68.33
73551;BME280;61816;53.582;10.096;2023-07-09T04:18:45;54202.44;;;-144.73;68.96
73551;BME280;61816;53.582;10.096;2023-07-09T04:21:10;54157.31;;;-144.73;68.30
73551;BME280;61816;53.582;10.096;2023-07-09T04:23:35;54165.50;;;-144.73;68.47
73551;BME280;61816;53.582;10.096;2023-07-09T04:26:01;54167.56;;;-144.73;66.77
73551;BME280;61816;53.582;10.096;2023-07-09T04:28:29;54181.94;;;-144.73;66.51
73551;BME280;61816;53.582;10.096;2023-07-09T04:30:55;54173.72;;;-144.73;67.49
73551;BME280;61816;53.582;10.096;2023-07-09T04:33:20;54206.56;;;-144.73;68.61
73551;BME280;61816;53.582;10.096;2023-07-09T04:35:46;54198.34;;;-144.73;67.13
73551;BME280;61816;53.582;10.096;2023-07-09T04:38:13;54151.16;;;-144.73;67.84
73551;BME280;61816;53.582;10.096;2023-07-09T04:40:38;54163.47;;;-144.73;68.17
73551;BME280;61816;53.582;10.096;2023-07-09T04:43:03;54177.81;;;-144.73;67.61
73551;BME280;61816;53.582;10.096;2023-07-09T04:45:29;54173.72;;;-144.73;65.86
73551;BME280;61816;53.582;10.096;2023-07-09T04:47:54;54181.94;;;-144.73;67.95
73551;BME280;61816;53.582;10.096;2023-07-09T04:50:20;54194.25;;;-144.73;66.51
73551;BME280;61816;53.582;10.096;2023-07-09T04:52:45;54183.97;;;-144.73;66.95
73551;BME280;61816;53.582;10.096;2023-07-09T04:55:10;54161.41;;;-144.73;66.83
73551;BME280;61816;53.582;10.096;2023-07-09T04:57:36;54214.78;;;-144.73;66.71
73551;BME280;61816;53.582;10.096;2023-07-09T05:00:02;54196.28;;;-144.73;65.04
73551;BME280;61816;53.582;10.096;2023-07-09T05:02:29;54181.94;;;-144.73;64.27
73551;BME280;61816;53.582;10.096;2023-07-09T05:04:55;54145.00;;;-144.73;64.16
73551;BME280;61816;53.582;10.096;2023-07-09T05:07:20;54149.09;;;-144.73;63.34
73551;BME280;61816;53.582;10.096;2023-07-09T05:09:46;54167.56;;;-144.73;62.46
73551;BME280;61816;53.582;10.096;2023-07-09T05:12:12;54171.66;;;-144.73;62.15
73551;BME280;61816;53.582;10.096;2023-07-09T05:14:38;54186.03;;;-144.73;62.30
73551;BME280;61816;53.582;10.096;2023-07-09T05:17:04;54149.09;;;-144.73;61.86
73551;BME280;61816;53.582;10.096;2023-07-09T05:19:30;54165.50;;;-144.73;61.42
73551;BME280;61816;53.582;10.096;2023-07-09T05:21:56;54177.81;;;-144.73;62.20
73551;BME280;61816;53.582;10.096;2023-07-09T05:24:21;54145.00;;;-144.73;61.27
73551;BME280;61816;53.582;10.096;2023-07-09T05:26:46;54192.19;;;-144.73;61.07
73551;BME280;61816;53.582;10.096;2023-07-09T05:29:12;54157.31;;;-144.73;59.88
73551;BME280;61816;53.582;10.096;2023-07-09T05:31:37;54116.25;;;-144.73;59.91
73551;BME280;61816;53.582;10.096;2023-07-09T05:34:03;54173.72;;;-144.73;60.38
73551;BME280;61816;53.582;10.096;2023-07-09T05:36:28;54179.88;;;-144.73;59.47
73551;BME280;61816;53.582;10.096;2023-07-09T05:38:55;54149.09;;;-144.73;58.38
73551;BME280;61816;53.582;10.096;2023-07-09T05:41:20;54161.41;;;-144.73;57.19
73551;BME280;61816;53.582;10.096;2023-07-09T05:43:46;54165.50;;;-144.73;56.79
73551;BME280;61816;53.582;10.096;2023-07-09T05:46:12;54161.41;;;-144.73;57.76
73551;BME280;61816;53.582;10.096;2023-07-09T05:48:38;54173.72;;;-144.73;56.93
73551;BME280;61816;53.582;10.096;2023-07-09T05:51:03;54161.41;;;-144.73;55.85
73551;BME280;61816;53.582;10.096;2023-07-09T05:53:29;54153.19;;;-144.73;56.78
73551;BME280;61816;53.582;10.096;2023-07-09T05:55:55;54145.00;;;-144.73;55.82
73551;BME280;61816;53.582;10.096;2023-07-09T05:58:22;54194.25;;;-144.73;56.05
73551;BME280;61816;53.582;10.096;2023-07-09T06:00:51;54165.50;;;-144.73;55.91
73551;BME280;61816;53.582;10.096;2023-07-09T06:03:22;54181.94;;;-144.73;55.70
73551;BME280;61816;53.582;10.096;2023-07-09T06:05:48;54177.81;;;-144.73;55.01
73551;BME280;61816;53.582;10.096;2023-07-09T06:08:19;54145.00;;;-144.73;55.70
73551;BME280;61816;53.582;10.096;2023-07-09T06:11:10;54145.00;;;-144.73;54.81
73551;BME280;61816;53.582;10.096;2023-07-09T06:13:36;54145.00;;;-144.73;53.98
73551;BME280;61816;53.582;10.096;2023-07-09T06:16:02;54134.72;;;-144.73;53.83
73551;BME280;61816;53.582;10.096;2023-07-09T06:18:28;54153.19;;;-144.73;54.70
73551;BME280;61816;53.582;10.096;2023-07-09T06:20:57;54194.25;;;-144.73;54.86
73551;BME280;61816;53.582;10.096;2023-07-09T06:23:23;54169.63;;;-144.73;53.79
73551;BME280;61816;53.582;10.096;2023-07-09T06:25:48;54163.47;;;-144.73;53.64
73551;BME280;61816;53.582;10.096;2023-07-09T06:28:19;54161.41;;;-144.73;54.54
73551;BME280;61816;53.582;10.096;2023-07-09T06:30:47;54149.09;;;-144.73;53.69
73551;BME280;61816;53.582;10.096;2023-07-09T06:33:14;54181.94;;;-144.73;53.65
73551;BME280;61816;53.582;10.096;2023-07-09T06:35:46;54181.94;;;-144.73;53.56
73551;BME280;61816;53.582;10.096;2023-07-09T06:38:12;54163.47;;;-144.73;53.55
73551;BME280;61816;53.582;10.096;2023-07-09T06:40:37;54151.16;;;-144.73;53.45
73551;BME280;61816;53.582;10.096;2023-07-09T06:43:02;54149.09;;;-144.73;52.67
73551;BME280;61816;53.582;10.096;2023-07-09T06:45:28;54145.00;;;-144.73;52.81
73551;BME280;61816;53.582;10.096;2023-07-09T06:47:54;54161.41;;;-144.73;52.25
73551;BME280;61816;53.582;10.096;2023-07-09T06:50:19;54145.00;;;-144.73;51.98
73551;BME280;61816;53.582;10.096;2023-07-09T06:52:46;54095.72;;;-144.73;52.25
73551;BME280;61816;53.582;10.096;2023-07-09T06:55:11;54153.19;;;-144.73;52.55
73551;BME280;61816;53.582;10.096;2023-07-09T06:57:37;54095.72;;;-144.73;52.92
73551;BME280;61816;53.582;10.096;2023-07-09T07:00:02;54124.47;;;-144.73;51.86
73551;BME280;61816;53.582;10.096;2023-07-09T07:02:28;54181.94;;;-144.73;51.15
73551;BME280;61816;53.582;10.096;2023-07-09T07:04:53;54153.19;;;-144.73;51.84
73551;BME280;61816;53.582;10.096;2023-07-09T07:07:19;54153.19;;;-144.73;51.61
73551;BME280;61816;53.582;10.096;2023-07-09T07:09:44;54157.31;;;-144.73;51.72
73551;BME280;61816;53.582;10.096;2023-07-09T07:12:10;54171.66;;;-144.73;51.36
73551;BME280;61816;53.582;10.096;2023-07-09T07:14:36;54165.50;;;-144.73;52.39
73551;BME280;61816;53.582;10.096;2023-07-09T07:17:01;54153.19;;;-144.73;51.48
73551;BME280;61816;53.582;10.096;2023-07-09T07:19:27;54159.34;;;-144.73;50.79
73551;BME280;61816;53.582;10.096;2023-07-09T07:21:53;54132.69;;;-144.73;52.87
73551;BME280;61816;53.582;10.096;2023-07-09T07:24:18;54145.00;;;-144.73;52.56
73551;BME280;61816;53.582;10.096;2023-07-09T07:26:43;54145.00;;;-144.73;52.46
73551;BME280;61816;53.582;10.096;2023-07-09T07:29:09;54165.50;;;-144.73;51.22
73551;BME280;61816;53.582;10.096;2023-07-09T07:31:35;54151.16;;;-144.73;51.75
73551;BME280;61816;53.582;10.096;2023-07-09T07:34:00;54077.25;;;-144.73;49.85
73551;BME280;61816;53.582;10.096;2023-07-09T07:36:25;54099.84;;;-144.73;49.16
73551;BME280;61816;53.582;10.096;2023-07-09T07:38:50;54145.00;;;-144.73;50.07
73551;BME280;61816;53.582;10.096;2023-07-09T07:41:16;54108.03;;;-144.73;48.98
73551;BME280;61816;53.582;10.096;2023-07-09T07:43:41;54089.56;;;-144.73;47.62
73551;BME280;61816;53.582;10.096;2023-07-09T07:46:07;54091.63;;;-144.73;48.38
73551;BME280;61816;53.582;10.096;2023-07-09T07:48:36;54145.00;;;-144.73;47.75
73551;BME280;61816;53.582;10.096;2023-07-09T07:51:03;54079.31;;;-144.73;47.24
73551;BME280;61816;53.582;10.096;2023-07-09T07:53:29;54079.31;;;-144.73;46.63
73551;BME280;61816;53.582;10.096;2023-07-09T07:55:56;54118.31;;;-144.73;47.23
73551;BME280;61816;53.582;10.096;2023-07-09T07:58:22;54083.41;;;-144.73;46.66
73551;BME280;61816;53.582;10.096;2023-07-09T08:00:47;54099.84;;;-144.73;44.79
73551;BME280;61816;53.582;10.096;2023-07-09T08:03:15;54120.34;;;-144.73;44.94
73551;BME280;61816;53.582;10.096;2023-07-09T08:05:48;54120.34;;;-144.73;45.78
73551;BME280;61816;53.582;10.096;2023-07-09T08:08:14;54067.00;;;-144.73;44.71
73551;BME280;61816;53.582;10.096;2023-07-09T08:10:40;54091.63;;;-144.73;44.46
73551;BME280;61816;53.582;10.096;2023-07-09T08:13:05;54038.25;;;-144.73;43.29
73551;BME280;61816;53.582;10.096;2023-07-09T08:15:30;54075.22;;;-144.73;43.22
73551;BME280;61816;53.582;10.096;2023-07-09T08:17:56;54067.00;;;-144.73;43.38
73551;BME280;61816;53.582;10.096;2023-07-09T08:20:21;54073.16;;;-144.73;43.59
73551;BME280;61816;53.582;10.096;2023-07-09T08:22:46;54079.31;;;-144.73;43.00
73551;BME280;61816;53.582;10.096;2023-07-09T08:25:12;54093.69;;;-144.73;43.82
73551;BME280;61816;53.582;10.096;2023-07-09T08:27:37;54087.53;;;-144.73;43.08
73551;BME280;61816;53.582;10.096;2023-07-09T08:30:03;54085.47;;;-144.73;42.61
73551;BME280;61816;53.582;10.096;2023-07-09T08:32:28;54075.22;;;-144.73;42.47
73551;BME280;61816;53.582;10.096;2023-07-09T08:34:57;54071.09;;;-144.73;41.29
73551;BME280;61816;53.582;10.096;2023-07-09T08:37:22;54050.59;;;-144.73;41.20
73551;BME280;61816;53.582;10.096;2023-07-09T08:39:48;54046.47;;;-144.73;41.30
73551;BME280;61816;53.582;10.096;2023-07-09T08:42:24;54034.16;;;-144.73;42.12
73551;BME280;61816;53.582;10.096;2023-07-09T08:50:09;54067.00;;;-144.73;42.96
73551;BME280;61816;53.582;10.096;2023-07-09T08:52:38;54079.31;;;-144.73;41.54
73551;BME280;61816;53.582;10.096;2023-07-09T08:55:12;54042.38;;;-144.73;42.80
73551;BME280;61816;53.582;10.096;2023-07-09T08:57:44;54032.13;;;-144.73;43.15
73551;BME280;61816;53.582;10.096;2023-07-09T09:00:18;54036.22;;;-144.73;41.62
73551;BME280;61816;53.582;10.096;2023-07-09T09:02:55;54054.69;;;-144.73;41.83
73551;BME280;61816;53.582;10.096;2023-07-09T09:05:23;54038.25;;;-144.73;41.23
73551;BME280;61816;53.582;10.096;2023-07-09T09:07:54;54034.16;;;-144.73;41.08
73551;BME280;61816;53.582;10.096;2023-07-09T09:13:11;54038.25;;;-144.73;40.29
73551;BME280;61816;53.582;10.096;2023-07-09T09:15:45;54025.94;;;-144.73;39.88
73551;BME280;61816;53.582;10.096;2023-07-09T09:18:20;54058.78;;;-144.73;41.45
73551;BME280;61816;53.582;10.096;2023-07-09T09:20:55;54075.22;;;-144.73;39.85
73551;BME280;61816;53.582;10.096;2023-07-09T09:23:22;54050.59;;;-144.73;38.58
73551;BME280;61816;53.582;10.096;2023-07-09T09:25:52;54048.53;;;-144.73;38.40
73551;BME280;61816;53.582;10.096;2023-07-09T09:28:20;54034.16;;;-144.73;39.38
73551;BME280;61816;53.582;10.096;2023-07-09T09:30:47;54025.94;;;-144.73;38.28
73551;BME280;61816;53.582;10.096;2023-07-09T09:33:16;54025.94;;;-144.73;38.54
73551;BME280;61816;53.582;10.096;2023-07-09T09:35:43;54021.84;;;-144.73;38.49
73551;BME280;61816;53.582;10.096;2023-07-09T09:38:21;54040.31;;;-144.73;37.96
73551;BME280;61816;53.582;10.096;2023-07-09T09:40:47;54021.84;;;-144.73;37.79
73551;BME280;61816;53.582;10.096;2023-07-09T09:43:16;54046.47;;;-144.73;37.83
73551;BME280;61816;53.582;10.096;2023-07-09T09:45:43;54025.94;;;-144.73;37.79
73551;BME280;61816;53.582;10.096;2023-07-09T09:48:25;54062.91;;;-144.73;37.82
73551;BME280;61816;53.582;10.096;2023-07-09T09:50:52;54025.94;;;-144.73;37.43
73551;BME280;61816;53.582;10.096;2023-07-09T09:53:23;54046.47;;;-144.73;37.05
73551;BME280;61816;53.582;10.096;2023-07-09T09:55:50;54046.47;;;-144.73;37.19
73551;BME280;61816;53.582;10.096;2023-07-09T09:58:17;54038.25;;;-144.73;36.13
73551;BME280;61816;53.582;10.096;2023-07-09T10:00:51;54067.00;;;-144.73;36.08
73551;BME280;61816;53.582;10.096;2023-07-09T10:03:18;54042.38;;;-144.73;37.09
73551;BME280;61816;53.582;10.096;2023-07-09T10:05:59;53980.81;;;-144.73;36.51
73551;BME280;61816;53.582;10.096;2023-07-09T10:11:30;54001.31;;;-144.73;35.88
73551;BME280;61816;53.582;10.096;2023-07-09T10:14:12;54042.38;;;-144.73;35.93
73551;BME280;61816;53.582;10.096;2023-07-09T10:16:45;53984.91;;;-144.73;35.26
73551;BME280;61816;53.582;10.096;2023-07-09T10:19:35;54005.44;;;-144.73;35.38
73551;BME280;61816;53.582;10.096;2023-07-09T10:22:12;53984.91;;;-144.73;35.93
73551;BME280;61816;53.582;10.096;2023-07-09T10:27:32;53976.69;;;-144.73;35.58
73551;BME280;61816;53.582;10.096;2023-07-09T10:33:07;54017.75;;;-144.73;35.75
73551;BME280;61816;53.582;10.096;2023-07-09T10:40:52;54067.00;;;-144.73;34.09
73551;BME280;61816;53.582;10.096;2023-07-09T10:43:27;53993.13;;;-144.73;33.53
73551;BME280;61816;53.582;10.096;2023-07-09T10:45:59;53993.13;;;-144.73;33.67
73551;BME280;61816;53.582;10.096;2023-07-09T10:48:38;54032.13;;;-144.73;34.57
73551;BME280;61816;53.582;10.096;2023-07-09T10:51:16;53993.13;;;-144.73;34.17
73551;BME280;61816;53.582;10.096;2023-07-09T10:53:54;54013.63;;;-144.73;33.32
73551;BME280;61816;53.582;10.096;2023-07-09T10:56:23;54079.31;;;-144.73;33.18
73551;BME280;61816;53.582;10.096;2023-07-09T10:58:57;54005.44;;;-144.73;33.86
73551;BME280;61816;53.582;10.096;2023-07-09T11:01:40;53989.00;;;-144.73;33.42
73551;BME280;61816;53.582;10.096;2023-07-09T11:04:32;53997.22;;;-144.73;32.82
73551;BME280;61816;53.582;10.096;2023-07-09T11:07:03;53980.81;;;-144.73;32.01
73551;BME280;61816;53.582;10.096;2023-07-09T11:09:33;53976.69;;;-144.73;32.23
73551;BME280;61816;53.582;10.096;2023-07-09T11:12:06;53980.81;;;-144.73;31.80
73551;BME280;61816;53.582;10.096;2023-07-09T11:14:38;53980.81;;;-144.73;32.64
73551;BME280;61816;53.582;10.096;2023-07-09T11:17:16;53935.66;;;-144.73;32.76
73551;BME280;61816;53.582;10.096;2023-07-09T11:19:49;53947.97;;;-144.73;31.18
73551;BME280;61816;53.582;10.096;2023-07-09T11:22:39;53960.28;;;-144.73;30.99
73551;BME280;61816;53.582;10.096;2023-07-09T11:25:11;53956.19;;;-144.73;31.73
73551;BME280;61816;53.582;10.096;2023-07-09T11:27:53;53976.69;;;-144.73;31.42
73551;BME280;61816;53.582;10.096;2023-07-09T11:30:27;53956.19;;;-144.73;29.69
73551;BME280;61816;53.582;10.096;2023-07-09T11:32:58;53968.50;;;-144.73;29.63
73551;BME280;61816;53.582;10.096;2023-07-09T11:35:26;53964.38;;;-144.73;29.40
73551;BME280;61816;53.582;10.096;2023-07-09T11:37:54;53947.97;;;-144.73;30.08
73551;BME280;61816;53.582;10.096;2023-07-09T11:40:21;53984.91;;;-144.73;29.42
73551;BME280;61816;53.582;10.096;2023-07-09T11:42:55;53947.97;;;-144.73;29.30
73551;BME280;61816;53.582;10.096;2023-07-09T11:45:25;53964.38;;;-144.73;29.77
73551;BME280;61816;53.582;10.096;2023-07-09T11:47:54;53974.66;;;-144.73;29.40
73551;BME280;61816;53.582;10.096;2023-07-09T11:50:27;53952.06;;;-144.73;28.81
73551;BME280;61816;53.582;10.096;2023-07-09T11:53:04;53970.53;;;-144.73;28.79
73551;BME280;61816;53.582;10.096;2023-07-09T11:55:41;53952.06;;;-144.73;27.69
73551;BME280;61816;53.582;10.096;2023-07-09T11:58:10;53923.34;;;-144.73;28.05
73551;BME280;61816;53.582;10.096;2023-07-09T12:00:42;53968.50;;;-144.73;28.27
73551;BME280;61816;53.582;10.096;2023-07-09T12:03:15;53972.59;;;-144.73;27.22
73551;BME280;61816;53.582;10.096;2023-07-09T12:05:49;53984.91;;;-144.73;27.56
73551;BME280;61816;53.582;10.096;2023-07-09T12:08:16;53935.66;;;-144.73;28.53
73551;BME280;61816;53.582;10.096;2023-07-09T12:10:43;53947.97;;;-144.73;27.92
73551;BME280;61816;53.582;10.096;2023-07-09T12:13:10;53939.75;;;-144.73;27.52
73551;BME280;61816;53.582;10.096;2023-07-09T12:15:38;53898.72;;;-144.73;27.15
73551;BME280;61816;53.582;10.096;2023-07-09T12:18:11;53939.75;;;-144.73;27.27
73551;BME280;61816;53.582;10.096;2023-07-09T12:20:37;53906.94;;;-144.73;26.93
73551;BME280;61816;53.582;10.096;2023-07-09T12:23:25;53962.34;;;-144.73;26.71
73551;BME280;61816;53.582;10.096;2023-07-09T12:25:52;53943.88;;;-144.73;26.99
73551;BME280;61816;53.582;10.096;2023-07-09T12:28:19;53980.81;;;-144.73;27.51
73551;BME280;61816;53.582;10.096;2023-07-09T12:30:47;53929.50;;;-144.73;27.08
73551;BME280;61816;53.582;10.096;2023-07-09T12:33:17;53927.44;;;-144.73;26.65
73551;BME280;61816;53.582;10.096;2023-07-09T12:35:43;53915.13;;;-144.73;25.87
73551;BME280;61816;53.582;10.096;2023-07-09T12:38:19;53931.56;;;-144.73;26.56
73551;BME280;61816;53.582;10.096;2023-07-09T12:40:46;53935.66;;;-144.73;25.29
73551;BME280;61816;53.582;10.096;2023-07-09T12:43:31;53964.38;;;-144.73;26.14
73551;BME280;61816;53.582;10.096;2023-07-09T12:45:58;53952.06;;;-144.73;26.79
73551;BME280;61816;53.582;10.096;2023-07-09T12:48:27;53980.81;;;-144.73;27.17
73551;BME280;61816;53.582;10.096;2023-07-09T12:50:58;53935.66;;;-144.73;27.13
73551;BME280;61816;53.582;10.096;2023-07-09T12:53:26;53913.09;;;-144.73;26.96
73551;BME280;61816;53.582;10.096;2023-07-09T12:55:55;53894.63;;;-144.73;25.79
73551;BME280;61816;53.582;10.096;2023-07-09T12:58:24;53911.03;;;-144.73;25.38